createdAt,value
2019-03-23T00:01:09.360Z,13.07
2019-03-23T00:06:05.292Z,11.20
2019-03-23T00:11:01.219Z,10.07
2019-03-23T00:15:57.237Z,13.40
2019-03-23T00:20:53.160Z,19.70
2019-03-23T00:25:49.088Z,15.43
2019-03-23T00:30:44.983Z,12.57
2019-03-23T00:35:41.016Z,12.57
2019-03-23T00:40:36.947Z,12.77
2019-03-23T00:45:32.965Z,13.23
2019-03-23T00:50:28.894Z,13.67
2019-03-23T00:55:24.846Z,14.20
2019-03-23T01:00:20.878Z,9.03
2019-03-23T01:05:16.803Z,10.70
2019-03-23T01:10:13.065Z,10.40
2019-03-23T01:15:12.471Z,18.53
2019-03-23T01:20:12.135Z,10.93
2019-03-23T01:25:09.016Z,11.00
2019-03-23T01:30:10.758Z,8.43
2019-03-23T01:35:07.279Z,11.57
2019-03-23T01:40:05.011Z,12.03
2019-03-23T01:45:01.121Z,15.90
2019-03-23T01:49:57.042Z,12.33
2019-03-23T01:54:52.956Z,9.50
2019-03-23T01:59:48.884Z,11.87
2019-03-23T02:04:44.885Z,11.40
2019-03-23T02:09:40.809Z,10.17
2019-03-23T02:14:36.736Z,9.30
2019-03-23T02:19:32.664Z,11.53
2019-03-23T02:24:29.299Z,12.00
2019-03-23T02:29:25.186Z,10.80
2019-03-23T02:34:21.111Z,18.53
2019-03-23T02:39:17.032Z,13.33
2019-03-23T02:44:12.965Z,11.20
2019-03-23T02:49:08.895Z,8.90
2019-03-23T02:54:11.101Z,14.17
2019-03-23T02:59:07.127Z,7.70
2019-03-23T03:04:03.167Z,12.30
2019-03-23T03:08:59.086Z,11.47
2019-03-23T03:13:55.006Z,10.13
2019-03-23T03:18:50.924Z,9.60
2019-03-23T03:23:48.520Z,10.37
2019-03-23T03:28:44.546Z,14.53
2019-03-23T03:33:40.485Z,8.93
2019-03-23T03:38:36.420Z,13.40
2019-03-23T03:43:32.352Z,9.83
2019-03-23T03:48:28.290Z,15.10
2019-03-23T03:53:24.235Z,12.47
2019-03-23T03:58:20.181Z,11.40
2019-03-23T04:03:16.105Z,13.57
2019-03-23T04:08:12.350Z,15.33
2019-03-23T04:13:08.353Z,9.37
2019-03-23T04:18:04.333Z,21.90
2019-03-23T04:23:00.265Z,17.70
2019-03-23T04:27:56.210Z,32.13
2019-03-23T04:32:52.126Z,26.63
2019-03-23T04:37:48.161Z,47.80
2019-03-23T04:42:44.079Z,60.53
2019-03-23T04:47:40.134Z,76.20
2019-03-23T04:52:36.156Z,84.20
2019-03-23T04:57:32.092Z,117.23
2019-03-23T05:02:28.081Z,102.23
2019-03-23T05:07:24.004Z,83.20
2019-03-23T05:12:19.947Z,184.47
2019-03-23T05:17:15.867Z,193.13
2019-03-23T05:22:11.766Z,180.97
2019-03-23T05:27:07.691Z,164.53
2019-03-23T05:32:03.739Z,170.23
2019-03-23T05:36:59.677Z,86.03
2019-03-23T05:41:55.595Z,161.53
2019-03-23T05:46:51.524Z,150.93
2019-03-23T05:51:47.440Z,145.93
2019-03-23T05:56:43.444Z,133.57
2019-03-23T06:01:39.359Z,178.87
2019-03-23T06:06:35.267Z,204.90
2019-03-23T06:11:31.198Z,177.13
2019-03-23T06:16:27.115Z,147.07
2019-03-23T06:21:23.196Z,154.90
2019-03-23T06:26:19.110Z,174.60
2019-03-23T06:31:15.069Z,158.47
2019-03-23T06:36:10.995Z,99.20
2019-03-23T06:41:06.932Z,181.37
2019-03-23T06:46:02.913Z,137.97
2019-03-23T06:50:58.843Z,214.43
2019-03-23T06:55:54.762Z,214.30
2019-03-23T07:00:50.708Z,168.63
2019-03-23T07:05:46.748Z,132.53
2019-03-23T07:10:42.665Z,233.47
2019-03-23T07:15:38.582Z,242.73
2019-03-23T07:20:34.494Z,222.50
2019-03-23T07:25:30.417Z,198.37
2019-03-23T07:30:26.342Z,194.80
2019-03-23T07:35:22.256Z,236.13
2019-03-23T07:40:18.189Z,100.43
2019-03-23T07:45:14.801Z,147.57
2019-03-23T07:50:12.026Z,225.03
2019-03-23T07:55:12.517Z,201.23
2019-03-23T08:00:11.568Z,114.73
2019-03-23T08:05:07.650Z,207.53
2019-03-23T08:10:04.627Z,207.50
2019-03-23T08:15:04.582Z,206.53
2019-03-23T08:20:00.512Z,213.00
2019-03-23T08:25:00.135Z,115.50
2019-03-23T08:29:56.218Z,192.50
2019-03-23T08:34:52.130Z,215.87
2019-03-23T08:39:48.976Z,209.47
2019-03-23T08:44:44.880Z,190.77
2019-03-23T08:49:40.830Z,183.67
2019-03-23T08:54:37.637Z,153.80
2019-03-23T08:59:33.553Z,162.83
2019-03-23T09:04:29.471Z,170.10
2019-03-23T09:09:25.502Z,163.30
2019-03-23T09:14:23.461Z,155.23
2019-03-23T09:19:19.255Z,168.50
2019-03-23T09:24:21.206Z,141.27
2019-03-23T09:29:17.248Z,161.20
2019-03-23T09:34:13.160Z,90.60
2019-03-23T09:39:09.105Z,146.47
2019-03-23T09:44:05.021Z,136.50
2019-03-23T09:49:01.056Z,139.03
2019-03-23T09:53:57.020Z,137.57
2019-03-23T09:58:54.829Z,137.73
2019-03-23T10:03:50.844Z,135.90
2019-03-23T10:08:46.762Z,131.73
2019-03-23T10:13:45.017Z,158.50
2019-03-23T10:18:40.932Z,155.23
2019-03-23T10:23:43.631Z,145.33
2019-03-23T10:28:39.649Z,139.43
2019-03-23T10:33:35.574Z,141.60
2019-03-23T10:38:31.549Z,136.20
2019-03-23T10:43:27.463Z,138.00
2019-03-23T10:48:24.434Z,127.87
2019-03-23T10:53:23.182Z,127.73
2019-03-23T10:58:18.300Z,123.67
2019-03-23T11:03:14.298Z,122.30
2019-03-23T11:08:14.989Z,138.10
2019-03-23T11:13:11.535Z,133.47
2019-03-23T11:18:08.435Z,112.53
2019-03-23T11:23:06.802Z,119.47
2019-03-23T11:28:03.029Z,138.93
2019-03-23T11:32:59.374Z,129.23
2019-03-23T11:37:56.020Z,146.63
2019-03-23T11:42:56.707Z,136.87
2019-03-23T11:47:54.892Z,133.20
2019-03-23T11:52:50.824Z,124.17
2019-03-23T11:57:48.035Z,111.20
2019-03-23T12:02:43.959Z,96.77
2019-03-23T12:07:39.894Z,117.53
2019-03-23T12:12:36.691Z,100.17
2019-03-23T12:17:35.789Z,125.03
2019-03-23T12:22:33.359Z,110.67
2019-03-23T12:27:31.636Z,102.90
2019-03-23T12:32:28.696Z,101.70
2019-03-23T12:37:24.656Z,101.47
2019-03-23T12:42:20.560Z,107.43
2019-03-23T12:47:16.481Z,95.47
2019-03-23T12:52:12.491Z,68.50
2019-03-23T12:57:08.429Z,101.13
2019-03-23T13:02:04.488Z,94.20
2019-03-23T13:07:00.509Z,92.67
2019-03-23T13:11:56.424Z,103.70
2019-03-23T13:16:52.396Z,101.07
2019-03-23T13:21:49.324Z,95.70
2019-03-23T13:26:45.348Z,98.87
2019-03-23T13:31:41.275Z,70.70
2019-03-23T13:36:37.188Z,97.37
2019-03-23T13:41:33.109Z,82.77
2019-03-23T13:46:29.035Z,94.87
2019-03-23T13:51:25.058Z,92.27
2019-03-23T13:56:21.053Z,90.20
2019-03-23T14:01:16.989Z,88.30
2019-03-23T14:06:13.006Z,106.07
2019-03-23T14:11:08.934Z,104.73
2019-03-23T14:16:04.911Z,70.93
2019-03-23T14:21:00.817Z,95.13
2019-03-23T14:25:56.741Z,90.03
2019-03-23T14:30:52.702Z,93.23
2019-03-23T14:35:48.639Z,97.47
2019-03-23T14:40:44.564Z,76.53
2019-03-23T14:45:40.614Z,90.67
2019-03-23T14:50:36.674Z,83.03
2019-03-23T14:55:32.740Z,86.43
2019-03-23T15:00:30.480Z,90.67
2019-03-23T15:05:26.448Z,72.60
2019-03-23T15:10:22.502Z,88.67
2019-03-23T15:15:18.478Z,80.43
2019-03-23T15:20:14.452Z,70.90
2019-03-23T15:25:10.671Z,84.83
2019-03-23T15:30:06.868Z,78.87
2019-03-23T15:35:06.146Z,88.50
2019-03-23T15:40:04.875Z,86.90
2019-03-23T15:45:00.884Z,78.00
2019-03-23T15:49:56.812Z,86.27
2019-03-23T15:54:53.581Z,84.07
2019-03-23T15:59:49.560Z,87.30
2019-03-23T16:04:45.567Z,98.90
2019-03-23T16:09:41.608Z,84.43
2019-03-23T16:14:37.634Z,94.10
2019-03-23T16:19:33.601Z,80.47
2019-03-23T16:24:33.305Z,89.40
2019-03-23T16:29:29.203Z,88.77
2019-03-23T16:34:25.158Z,78.17
2019-03-23T16:39:21.092Z,75.67
2019-03-23T16:44:17.012Z,73.63
2019-03-23T16:49:12.923Z,91.17
2019-03-23T16:54:11.872Z,80.27
2019-03-23T16:59:07.990Z,76.87
2019-03-23T17:04:03.955Z,77.17
2019-03-23T17:08:59.964Z,78.00
2019-03-23T17:13:55.991Z,84.43
2019-03-23T17:18:51.945Z,80.73
2019-03-23T17:23:48.013Z,83.13
2019-03-23T17:28:43.928Z,81.90
2019-03-23T17:33:39.848Z,71.93
2019-03-23T17:38:35.817Z,80.33
2019-03-23T17:43:31.731Z,82.07
2019-03-23T17:48:27.670Z,69.33
2019-03-23T17:53:23.601Z,75.57
2019-03-23T17:58:19.567Z,92.50
2019-03-23T18:03:15.555Z,78.33
2019-03-23T18:08:11.476Z,73.67
2019-03-23T18:13:16.185Z,68.23
2019-03-23T18:18:05.326Z,78.07
2019-03-23T18:23:01.248Z,53.00
2019-03-23T18:27:57.268Z,49.27
2019-03-23T18:32:53.291Z,49.47
2019-03-23T18:37:49.212Z,50.73
2019-03-23T18:42:45.152Z,47.20
2019-03-23T18:47:41.082Z,41.00
2019-03-23T18:52:36.994Z,42.63
2019-03-23T18:57:32.914Z,39.97
2019-03-23T19:02:28.909Z,43.53
2019-03-23T19:07:24.858Z,36.90
2019-03-23T19:12:20.812Z,28.87
2019-03-23T19:17:16.885Z,33.70
2019-03-23T19:22:12.813Z,29.40
2019-03-23T19:27:08.740Z,31.37
2019-03-23T19:32:04.676Z,25.80
2019-03-23T19:37:00.642Z,30.13
2019-03-23T19:41:56.555Z,25.53
2019-03-23T19:46:52.562Z,18.87
2019-03-23T19:51:48.553Z,17.40
2019-03-23T19:56:44.477Z,14.93
2019-03-23T20:01:40.478Z,21.37
2019-03-23T20:06:36.476Z,19.27
2019-03-23T20:11:32.536Z,27.43
2019-03-23T20:16:28.655Z,26.93
2019-03-23T20:21:24.601Z,21.93
2019-03-23T20:26:20.533Z,17.10
2019-03-23T20:31:16.473Z,25.07
2019-03-23T20:36:12.387Z,24.57
2019-03-23T20:41:08.369Z,31.23
2019-03-23T20:46:04.389Z,26.83
2019-03-23T20:51:00.737Z,28.73
2019-03-23T20:55:56.668Z,28.83
2019-03-23T21:00:52.690Z,32.77
2019-03-23T21:05:48.656Z,25.07
2019-03-23T21:10:44.596Z,40.03
2019-03-23T21:15:40.743Z,31.07
2019-03-23T21:20:36.662Z,32.20
2019-03-23T21:25:32.594Z,37.10
2019-03-23T21:30:28.532Z,28.77
2019-03-23T21:35:24.447Z,32.40
2019-03-23T21:40:20.438Z,24.37
2019-03-23T21:45:17.160Z,36.67
2019-03-23T21:50:13.178Z,22.80
2019-03-23T21:55:09.470Z,34.23
2019-03-23T22:00:06.449Z,29.90
2019-03-23T22:05:04.282Z,48.17
2019-03-23T22:10:00.353Z,44.70
2019-03-23T22:14:56.899Z,33.60
2019-03-23T22:19:52.848Z,39.40
2019-03-23T22:24:48.792Z,21.97
2019-03-23T22:29:44.704Z,32.20
2019-03-23T22:34:40.623Z,24.53
2019-03-23T22:39:36.543Z,28.43
2019-03-23T22:44:32.455Z,24.13
2019-03-23T22:49:28.394Z,24.80
2019-03-23T22:54:25.030Z,38.37
2019-03-23T22:59:21.146Z,31.00
2019-03-23T23:04:17.083Z,22.50
2019-03-23T23:09:13.122Z,13.90
2019-03-23T23:14:09.039Z,22.03
2019-03-23T23:19:04.952Z,18.93
2019-03-23T23:24:11.888Z,15.97
2019-03-23T23:29:09.720Z,26.17
2019-03-23T23:34:05.631Z,22.17
2019-03-23T23:39:01.645Z,17.33
2019-03-23T23:43:57.658Z,16.30
2019-03-23T23:48:53.577Z,19.77
2019-03-23T23:58:44.512Z,17.43
